sensor_id;sensor_type;location;lat;lon;timestamp;P1;durP1;ratioP1;P2;durP2;ratioP2
21705;SDS011;11014;53.076;18.208;2022-08-21T00:02:13;11.32;;;8.85;;
21705;SDS011;11014;53.076;18.208;2022-08-21T00:04:46;10.23;;;9.23;;
21705;SDS011;11014;53.076;18.208;2022-08-21T00:07:27;10.60;;;9.25;;
21705;SDS011;11014;53.076;18.208;2022-08-21T00:09:56;10.13;;;9.13;;
21705;SDS011;11014;53.076;18.208;2022-08-21T00:12:25;10.68;;;9.57;;
21705;SDS011;11014;53.076;18.208;2022-08-21T00:14:53;10.50;;;9.05;;
21705;SDS011;11014;53.076;18.208;2022-08-21T00:17:25;10.18;;;9.18;;
21705;SDS011;11014;53.076;18.208;2022-08-21T00:19:54;11.38;;;9.25;;
21705;SDS011;11014;53.076;18.208;2022-08-21T00:22:22;9.90;;;9.00;;
21705;SDS011;11014;53.076;18.208;2022-08-21T00:24:50;10.00;;;9.00;;
21705;SDS011;11014;53.076;18.208;2022-08-21T00:27:19;9.93;;;8.90;;
21705;SDS011;11014;53.076;18.208;2022-08-21T00:29:47;9.73;;;8.73;;
21705;SDS011;11014;53.076;18.208;2022-08-21T00:32:23;9.27;;;8.38;;
21705;SDS011;11014;53.076;18.208;2022-08-21T00:34:52;10.23;;;9.15;;
21705;SDS011;11014;53.076;18.208;2022-08-21T00:37:21;10.82;;;8.90;;
21705;SDS011;11014;53.076;18.208;2022-08-21T00:39:51;9.65;;;8.73;;
21705;SDS011;11014;53.076;18.208;2022-08-21T00:42:21;10.27;;;9.27;;
21705;SDS011;11014;53.076;18.208;2022-08-21T00:44:50;9.95;;;8.85;;
21705;SDS011;11014;53.076;18.208;2022-08-21T00:47:18;10.00;;;9.00;;
21705;SDS011;11014;53.076;18.208;2022-08-21T00:49:47;9.57;;;8.65;;
21705;SDS011;11014;53.076;18.208;2022-08-21T00:52:17;9.93;;;8.75;;
21705;SDS011;11014;53.076;18.208;2022-08-21T00:54:51;9.13;;;8.10;;
21705;SDS011;11014;53.076;18.208;2022-08-21T01:00:26;9.00;;;7.97;;
21705;SDS011;11014;53.076;18.208;2022-08-21T01:03:01;8.50;;;7.60;;
21705;SDS011;11014;53.076;18.208;2022-08-21T01:05:35;8.45;;;7.55;;
21705;SDS011;11014;53.076;18.208;2022-08-21T01:08:05;8.98;;;7.95;;
21705;SDS011;11014;53.076;18.208;2022-08-21T01:10:34;9.98;;;8.43;;
21705;SDS011;11014;53.076;18.208;2022-08-21T01:13:07;8.93;;;8.13;;
21705;SDS011;11014;53.076;18.208;2022-08-21T01:15:41;9.70;;;8.57;;
21705;SDS011;11014;53.076;18.208;2022-08-21T01:18:12;10.13;;;8.13;;
21705;SDS011;11014;53.076;18.208;2022-08-21T01:23:33;8.50;;;7.63;;
21705;SDS011;11014;53.076;18.208;2022-08-21T01:26:04;9.13;;;8.23;;
21705;SDS011;11014;53.076;18.208;2022-08-21T01:28:38;8.57;;;7.68;;
21705;SDS011;11014;53.076;18.208;2022-08-21T01:31:12;8.88;;;7.97;;
21705;SDS011;11014;53.076;18.208;2022-08-21T01:33:43;7.78;;;7.07;;
21705;SDS011;11014;53.076;18.208;2022-08-21T01:36:13;8.15;;;7.35;;
21705;SDS011;11014;53.076;18.208;2022-08-21T01:38:41;8.15;;;7.15;;
21705;SDS011;11014;53.076;18.208;2022-08-21T01:41:10;8.00;;;7.30;;
21705;SDS011;11014;53.076;18.208;2022-08-21T01:43:38;8.55;;;7.65;;
21705;SDS011;11014;53.076;18.208;2022-08-21T01:46:07;8.80;;;7.95;;
21705;SDS011;11014;53.076;18.208;2022-08-21T01:48:36;8.63;;;7.75;;
21705;SDS011;11014;53.076;18.208;2022-08-21T01:51:06;9.27;;;7.40;;
21705;SDS011;11014;53.076;18.208;2022-08-21T01:53:35;8.43;;;7.30;;
21705;SDS011;11014;53.076;18.208;2022-08-21T01:56:06;8.85;;;8.00;;
21705;SDS011;11014;53.076;18.208;2022-08-21T01:58:40;8.00;;;7.20;;
21705;SDS011;11014;53.076;18.208;2022-08-21T02:01:09;7.78;;;6.68;;
21705;SDS011;11014;53.076;18.208;2022-08-21T02:03:38;7.70;;;6.90;;
21705;SDS011;11014;53.076;18.208;2022-08-21T02:06:07;7.72;;;6.47;;
21705;SDS011;11014;53.076;18.208;2022-08-21T02:08:39;8.40;;;7.15;;
21705;SDS011;11014;53.076;18.208;2022-08-21T02:11:09;8.68;;;7.32;;
21705;SDS011;11014;53.076;18.208;2022-08-21T02:13:37;8.73;;;7.28;;
21705;SDS011;11014;53.076;18.208;2022-08-21T02:16:06;9.35;;;6.82;;
21705;SDS011;11014;53.076;18.208;2022-08-21T02:18:35;7.90;;;6.97;;
21705;SDS011;11014;53.076;18.208;2022-08-21T02:21:04;8.75;;;6.47;;
21705;SDS011;11014;53.076;18.208;2022-08-21T02:23:33;9.38;;;6.78;;
21705;SDS011;11014;53.076;18.208;2022-08-21T02:26:03;8.13;;;7.20;;
21705;SDS011;11014;53.076;18.208;2022-08-21T02:28:34;8.30;;;7.20;;
21705;SDS011;11014;53.076;18.208;2022-08-21T02:31:05;8.20;;;7.00;;
21705;SDS011;11014;53.076;18.208;2022-08-21T02:33:34;8.05;;;7.00;;
21705;SDS011;11014;53.076;18.208;2022-08-21T02:36:03;7.32;;;6.63;;
21705;SDS011;11014;53.076;18.208;2022-08-21T02:38:33;8.07;;;7.18;;
21705;SDS011;11014;53.076;18.208;2022-08-21T02:41:06;7.93;;;7.13;;
21705;SDS011;11014;53.076;18.208;2022-08-21T02:46:06;8.52;;;6.72;;
21705;SDS011;11014;53.076;18.208;2022-08-21T02:48:37;7.78;;;6.60;;
21705;SDS011;11014;53.076;18.208;2022-08-21T02:51:11;8.25;;;7.22;;
21705;SDS011;11014;53.076;18.208;2022-08-21T02:53:43;7.38;;;6.63;;
21705;SDS011;11014;53.076;18.208;2022-08-21T02:56:13;8.43;;;7.30;;
21705;SDS011;11014;53.076;18.208;2022-08-21T02:58:45;7.53;;;6.72;;
21705;SDS011;11014;53.076;18.208;2022-08-21T03:01:15;7.70;;;6.55;;
21705;SDS011;11014;53.076;18.208;2022-08-21T03:03:45;7.38;;;6.43;;
21705;SDS011;11014;53.076;18.208;2022-08-21T03:06:19;7.80;;;6.95;;
21705;SDS011;11014;53.076;18.208;2022-08-21T03:08:49;6.90;;;6.18;;
21705;SDS011;11014;53.076;18.208;2022-08-21T03:11:19;8.70;;;6.90;;
21705;SDS011;11014;53.076;18.208;2022-08-21T03:13:48;7.70;;;6.90;;
21705;SDS011;11014;53.076;18.208;2022-08-21T03:16:17;8.02;;;6.93;;
21705;SDS011;11014;53.076;18.208;2022-08-21T03:18:47;8.45;;;6.63;;
21705;SDS011;11014;53.076;18.208;2022-08-21T03:21:15;7.00;;;6.30;;
21705;SDS011;11014;53.076;18.208;2022-08-21T03:23:46;8.43;;;6.65;;
21705;SDS011;11014;53.076;18.208;2022-08-21T03:26:15;7.97;;;6.50;;
21705;SDS011;11014;53.076;18.208;2022-08-21T03:28:46;9.07;;;7.30;;
21705;SDS011;11014;53.076;18.208;2022-08-21T03:31:14;9.45;;;6.78;;
21705;SDS011;11014;53.076;18.208;2022-08-21T03:33:43;7.43;;;6.57;;
21705;SDS011;11014;53.076;18.208;2022-08-21T03:36:12;7.70;;;6.72;;
21705;SDS011;11014;53.076;18.208;2022-08-21T03:38:40;6.90;;;6.15;;
21705;SDS011;11014;53.076;18.208;2022-08-21T03:41:09;8.73;;;6.50;;
21705;SDS011;11014;53.076;18.208;2022-08-21T03:43:37;9.38;;;6.95;;
21705;SDS011;11014;53.076;18.208;2022-08-21T03:46:06;7.63;;;6.28;;
21705;SDS011;11014;53.076;18.208;2022-08-21T03:48:36;6.50;;;5.90;;
21705;SDS011;11014;53.076;18.208;2022-08-21T03:51:05;7.35;;;6.65;;
21705;SDS011;11014;53.076;18.208;2022-08-21T03:53:34;7.18;;;6.32;;
21705;SDS011;11014;53.076;18.208;2022-08-21T03:56:03;6.97;;;6.28;;
21705;SDS011;11014;53.076;18.208;2022-08-21T03:58:33;8.25;;;6.40;;
21705;SDS011;11014;53.076;18.208;2022-08-21T04:01:02;7.25;;;6.32;;
21705;SDS011;11014;53.076;18.208;2022-08-21T04:03:33;7.47;;;6.72;;
21705;SDS011;11014;53.076;18.208;2022-08-21T04:06:03;7.82;;;6.40;;
21705;SDS011;11014;53.076;18.208;2022-08-21T04:08:32;7.40;;;6.35;;
21705;SDS011;11014;53.076;18.208;2022-08-21T04:11:02;7.70;;;6.70;;
21705;SDS011;11014;53.076;18.208;2022-08-21T04:13:31;7.20;;;6.50;;
21705;SDS011;11014;53.076;18.208;2022-08-21T04:15:59;7.55;;;6.68;;
21705;SDS011;11014;53.076;18.208;2022-08-21T04:18:28;7.15;;;6.45;;
21705;SDS011;11014;53.076;18.208;2022-08-21T04:20:56;9.15;;;6.57;;
21705;SDS011;11014;53.076;18.208;2022-08-21T04:23:26;7.13;;;6.43;;
21705;SDS011;11014;53.076;18.208;2022-08-21T04:25:55;7.13;;;6.47;;
21705;SDS011;11014;53.076;18.208;2022-08-21T04:28:25;7.15;;;6.30;;
21705;SDS011;11014;53.076;18.208;2022-08-21T04:30:57;7.10;;;6.40;;
21705;SDS011;11014;53.076;18.208;2022-08-21T04:33:26;7.00;;;6.35;;
21705;SDS011;11014;53.076;18.208;2022-08-21T04:35:54;6.78;;;6.07;;
21705;SDS011;11014;53.076;18.208;2022-08-21T04:38:22;7.30;;;6.55;;
21705;SDS011;11014;53.076;18.208;2022-08-21T04:40:51;7.50;;;6.60;;
21705;SDS011;11014;53.076;18.208;2022-08-21T04:43:20;7.97;;;6.40;;
21705;SDS011;11014;53.076;18.208;2022-08-21T04:45:51;7.90;;;7.10;;
21705;SDS011;11014;53.076;18.208;2022-08-21T04:48:21;7.18;;;6.47;;
21705;SDS011;11014;53.076;18.208;2022-08-21T04:53:43;7.05;;;6.35;;
21705;SDS011;11014;53.076;18.208;2022-08-21T04:59:13;7.35;;;6.50;;
21705;SDS011;11014;53.076;18.208;2022-08-21T05:01:45;7.93;;;6.65;;
21705;SDS011;11014;53.076;18.208;2022-08-21T05:04:16;7.07;;;6.28;;
21705;SDS011;11014;53.076;18.208;2022-08-21T05:06:50;8.38;;;6.78;;
21705;SDS011;11014;53.076;18.208;2022-08-21T05:09:21;8.10;;;6.22;;
21705;SDS011;11014;53.076;18.208;2022-08-21T05:11:51;7.65;;;6.82;;
21705;SDS011;11014;53.076;18.208;2022-08-21T05:14:20;7.03;;;6.32;;
21705;SDS011;11014;53.076;18.208;2022-08-21T05:16:49;7.82;;;7.03;;
21705;SDS011;11014;53.076;18.208;2022-08-21T05:19:17;9.43;;;6.88;;
21705;SDS011;11014;53.076;18.208;2022-08-21T05:21:46;7.38;;;6.63;;
21705;SDS011;11014;53.076;18.208;2022-08-21T05:24:16;7.38;;;6.68;;
21705;SDS011;11014;53.076;18.208;2022-08-21T05:26:45;7.05;;;6.25;;
21705;SDS011;11014;53.076;18.208;2022-08-21T05:29:15;8.15;;;6.47;;
21705;SDS011;11014;53.076;18.208;2022-08-21T05:31:46;7.97;;;6.57;;
21705;SDS011;11014;53.076;18.208;2022-08-21T05:34:20;7.43;;;6.05;;
21705;SDS011;11014;53.076;18.208;2022-08-21T05:36:51;7.65;;;6.93;;
21705;SDS011;11014;53.076;18.208;2022-08-21T05:39:19;7.28;;;6.32;;
21705;SDS011;11014;53.076;18.208;2022-08-21T05:41:48;7.45;;;6.72;;
21705;SDS011;11014;53.076;18.208;2022-08-21T05:44:17;7.25;;;6.55;;
21705;SDS011;11014;53.076;18.208;2022-08-21T05:46:47;8.02;;;6.75;;
21705;SDS011;11014;53.076;18.208;2022-08-21T05:49:15;7.90;;;6.63;;
21705;SDS011;11014;53.076;18.208;2022-08-21T05:51:44;7.00;;;6.30;;
21705;SDS011;11014;53.076;18.208;2022-08-21T05:54:12;7.82;;;6.55;;
21705;SDS011;11014;53.076;18.208;2022-08-21T05:56:41;7.68;;;6.88;;
21705;SDS011;11014;53.076;18.208;2022-08-21T05:59:12;6.97;;;6.32;;
21705;SDS011;11014;53.076;18.208;2022-08-21T06:01:41;7.05;;;6.45;;
21705;SDS011;11014;53.076;18.208;2022-08-21T06:04:09;7.68;;;6.97;;
21705;SDS011;11014;53.076;18.208;2022-08-21T06:06:38;6.70;;;6.10;;
21705;SDS011;11014;53.076;18.208;2022-08-21T06:09:07;6.90;;;6.20;;
21705;SDS011;11014;53.076;18.208;2022-08-21T06:11:35;7.95;;;7.20;;
21705;SDS011;11014;53.076;18.208;2022-08-21T06:14:03;7.03;;;6.32;;
21705;SDS011;11014;53.076;18.208;2022-08-21T06:16:34;8.60;;;6.83;;
21705;SDS011;11014;53.076;18.208;2022-08-21T06:19:02;7.22;;;6.53;;
21705;SDS011;11014;53.076;18.208;2022-08-21T06:21:31;7.18;;;6.47;;
21705;SDS011;11014;53.076;18.208;2022-08-21T06:23:59;7.18;;;6.47;;
21705;SDS011;11014;53.076;18.208;2022-08-21T06:26:28;8.30;;;6.90;;
21705;SDS011;11014;53.076;18.208;2022-08-21T06:28:57;7.40;;;6.70;;
21705;SDS011;11014;53.076;18.208;2022-08-21T06:31:26;7.25;;;6.25;;
21705;SDS011;11014;53.076;18.208;2022-08-21T06:33:55;7.20;;;6.55;;
21705;SDS011;11014;53.076;18.208;2022-08-21T06:36:25;7.20;;;6.53;;
21705;SDS011;11014;53.076;18.208;2022-08-21T06:38:54;7.78;;;6.93;;
21705;SDS011;11014;53.076;18.208;2022-08-21T06:41:24;8.02;;;6.32;;
21705;SDS011;11014;53.076;18.208;2022-08-21T06:43:55;7.35;;;6.60;;
21705;SDS011;11014;53.076;18.208;2022-08-21T06:46:27;7.63;;;6.82;;
21705;SDS011;11014;53.076;18.208;2022-08-21T06:48:57;7.72;;;6.93;;
21705;SDS011;11014;53.076;18.208;2022-08-21T06:51:26;7.35;;;6.65;;
21705;SDS011;11014;53.076;18.208;2022-08-21T06:53:55;7.80;;;7.03;;
21705;SDS011;11014;53.076;18.208;2022-08-21T06:56:26;7.13;;;6.43;;
21705;SDS011;11014;53.076;18.208;2022-08-21T06:58:55;8.00;;;7.22;;
21705;SDS011;11014;53.076;18.208;2022-08-21T07:01:24;8.00;;;7.25;;
21705;SDS011;11014;53.076;18.208;2022-08-21T07:03:54;7.35;;;6.65;;
21705;SDS011;11014;53.076;18.208;2022-08-21T07:06:22;7.20;;;6.47;;
21705;SDS011;11014;53.076;18.208;2022-08-21T07:08:54;7.22;;;6.63;;
21705;SDS011;11014;53.076;18.208;2022-08-21T07:11:26;7.50;;;6.70;;
21705;SDS011;11014;53.076;18.208;2022-08-21T07:13:54;7.45;;;6.75;;
21705;SDS011;11014;53.076;18.208;2022-08-21T07:16:24;7.57;;;6.50;;
21705;SDS011;11014;53.076;18.208;2022-08-21T07:18:53;7.30;;;6.28;;
21705;SDS011;11014;53.076;18.208;2022-08-21T07:21:22;6.65;;;5.97;;
21705;SDS011;11014;53.076;18.208;2022-08-21T07:23:55;6.70;;;6.10;;
21705;SDS011;11014;53.076;18.208;2022-08-21T07:26:24;6.22;;;5.68;;
21705;SDS011;11014;53.076;18.208;2022-08-21T07:28:53;7.03;;;6.32;;
21705;SDS011;11014;53.076;18.208;2022-08-21T07:31:23;6.40;;;5.80;;
21705;SDS011;11014;53.076;18.208;2022-08-21T07:33:53;6.28;;;5.68;;
21705;SDS011;11014;53.076;18.208;2022-08-21T07:36:22;6.55;;;5.90;;
21705;SDS011;11014;53.076;18.208;2022-08-21T07:38:51;6.60;;;6.00;;
21705;SDS011;11014;53.076;18.208;2022-08-21T07:41:24;5.93;;;5.43;;
21705;SDS011;11014;53.076;18.208;2022-08-21T07:43:58;6.55;;;5.93;;
21705;SDS011;11014;53.076;18.208;2022-08-21T07:46:27;6.50;;;5.90;;
21705;SDS011;11014;53.076;18.208;2022-08-21T07:48:56;6.10;;;5.50;;
21705;SDS011;11014;53.076;18.208;2022-08-21T07:51:28;6.10;;;5.50;;
21705;SDS011;11014;53.076;18.208;2022-08-21T07:53:57;6.30;;;5.70;;
21705;SDS011;11014;53.076;18.208;2022-08-21T07:56:29;6.57;;;5.88;;
21705;SDS011;11014;53.076;18.208;2022-08-21T07:58:59;5.80;;;5.30;;
21705;SDS011;11014;53.076;18.208;2022-08-21T08:01:31;5.82;;;5.32;;
21705;SDS011;11014;53.076;18.208;2022-08-21T08:03:59;6.30;;;5.70;;
21705;SDS011;11014;53.076;18.208;2022-08-21T08:06:28;5.90;;;5.40;;
21705;SDS011;11014;53.076;18.208;2022-08-21T08:08:56;6.85;;;5.20;;
21705;SDS011;11014;53.076;18.208;2022-08-21T08:11:24;6.13;;;5.53;;
21705;SDS011;11014;53.076;18.208;2022-08-21T08:13:53;5.90;;;5.35;;
21705;SDS011;11014;53.076;18.208;2022-08-21T08:16:21;5.72;;;5.22;;
21705;SDS011;11014;53.076;18.208;2022-08-21T08:18:50;5.90;;;5.30;;
21705;SDS011;11014;53.076;18.208;2022-08-21T08:21:19;5.93;;;5.32;;
21705;SDS011;11014;53.076;18.208;2022-08-21T08:23:49;6.57;;;5.93;;
21705;SDS011;11014;53.076;18.208;2022-08-21T08:26:17;6.00;;;5.40;;
21705;SDS011;11014;53.076;18.208;2022-08-21T08:31:41;5.88;;;5.38;;
21705;SDS011;11014;53.076;18.208;2022-08-21T08:34:09;5.82;;;5.28;;
21705;SDS011;11014;53.076;18.208;2022-08-21T08:36:50;5.80;;;5.30;;
21705;SDS011;11014;53.076;18.208;2022-08-21T08:39:19;5.63;;;5.13;;
21705;SDS011;11014;53.076;18.208;2022-08-21T08:42:03;5.30;;;4.82;;
21705;SDS011;11014;53.076;18.208;2022-08-21T08:44:55;6.15;;;5.55;;
21705;SDS011;11014;53.076;18.208;2022-08-21T08:47:55;5.65;;;5.15;;
21705;SDS011;11014;53.076;18.208;2022-08-21T08:50:45;5.72;;;5.22;;
21705;SDS011;11014;53.076;18.208;2022-08-21T08:53:19;6.05;;;5.22;;
21705;SDS011;11014;53.076;18.208;2022-08-21T08:55:52;5.28;;;4.78;;
21705;SDS011;11014;53.076;18.208;2022-08-21T08:58:41;5.10;;;4.68;;
21705;SDS011;11014;53.076;18.208;2022-08-21T09:01:16;5.75;;;5.20;;
21705;SDS011;11014;53.076;18.208;2022-08-21T09:03:46;5.70;;;5.20;;
21705;SDS011;11014;53.076;18.208;2022-08-21T09:08:54;5.40;;;4.85;;
21705;SDS011;11014;53.076;18.208;2022-08-21T09:17:13;5.72;;;4.97;;
21705;SDS011;11014;53.076;18.208;2022-08-21T09:26:06;7.25;;;5.95;;
21705;SDS011;11014;53.076;18.208;2022-08-21T09:28:43;6.28;;;5.70;;
21705;SDS011;11014;53.076;18.208;2022-08-21T09:31:28;6.38;;;5.40;;
21705;SDS011;11014;53.076;18.208;2022-08-21T09:34:03;7.30;;;5.95;;
21705;SDS011;11014;53.076;18.208;2022-08-21T09:39:10;5.53;;;5.07;;
21705;SDS011;11014;53.076;18.208;2022-08-21T09:41:40;6.90;;;5.35;;
21705;SDS011;11014;53.076;18.208;2022-08-21T09:44:09;5.97;;;5.25;;
21705;SDS011;11014;53.076;18.208;2022-08-21T09:46:37;5.75;;;5.13;;
21705;SDS011;11014;53.076;18.208;2022-08-21T09:49:06;5.80;;;5.10;;
21705;SDS011;11014;53.076;18.208;2022-08-21T09:51:49;9.32;;;5.22;;
21705;SDS011;11014;53.076;18.208;2022-08-21T09:54:20;5.93;;;5.32;;
21705;SDS011;11014;53.076;18.208;2022-08-21T09:56:57;7.10;;;4.72;;
21705;SDS011;11014;53.076;18.208;2022-08-21T09:59:46;4.88;;;4.38;;
21705;SDS011;11014;53.076;18.208;2022-08-21T10:02:22;6.22;;;5.15;;
21705;SDS011;11014;53.076;18.208;2022-08-21T10:05:07;6.55;;;5.05;;
21705;SDS011;11014;53.076;18.208;2022-08-21T10:07:44;5.30;;;4.80;;
21705;SDS011;11014;53.076;18.208;2022-08-21T10:19:17;6.97;;;4.82;;
21705;SDS011;11014;53.076;18.208;2022-08-21T10:22:03;6.40;;;5.10;;
21705;SDS011;11014;53.076;18.208;2022-08-21T10:30:40;5.68;;;4.90;;
21705;SDS011;11014;53.076;18.208;2022-08-21T10:33:22;5.55;;;5.05;;
21705;SDS011;11014;53.076;18.208;2022-08-21T10:36:14;7.07;;;4.77;;
21705;SDS011;11014;53.076;18.208;2022-08-21T10:39:07;6.00;;;5.10;;
21705;SDS011;11014;53.076;18.208;2022-08-21T10:42:15;5.85;;;4.95;;
21705;SDS011;11014;53.076;18.208;2022-08-21T10:47:47;5.38;;;4.78;;
21705;SDS011;11014;53.076;18.208;2022-08-21T10:53:15;5.38;;;4.72;;
21705;SDS011;11014;53.076;18.208;2022-08-21T10:56:13;5.80;;;5.30;;
21705;SDS011;11014;53.076;18.208;2022-08-21T11:01:44;6.70;;;5.40;;
21705;SDS011;11014;53.076;18.208;2022-08-21T11:04:25;5.65;;;4.93;;
21705;SDS011;11014;53.076;18.208;2022-08-21T11:07:28;5.55;;;4.97;;
21705;SDS011;11014;53.076;18.208;2022-08-21T11:10:04;5.28;;;4.80;;
21705;SDS011;11014;53.076;18.208;2022-08-21T11:19:11;5.00;;;4.60;;
21705;SDS011;11014;53.076;18.208;2022-08-21T11:21:46;5.18;;;4.68;;
21705;SDS011;11014;53.076;18.208;2022-08-21T11:30:04;4.88;;;4.38;;
21705;SDS011;11014;53.076;18.208;2022-08-21T11:35:44;5.10;;;4.65;;
21705;SDS011;11014;53.076;18.208;2022-08-21T11:38:39;5.55;;;4.97;;
21705;SDS011;11014;53.076;18.208;2022-08-21T11:44:07;5.28;;;4.68;;
21705;SDS011;11014;53.076;18.208;2022-08-21T11:46:48;4.95;;;4.47;;
21705;SDS011;11014;53.076;18.208;2022-08-21T11:49:43;6.35;;;4.57;;
21705;SDS011;11014;53.076;18.208;2022-08-21T11:52:19;5.05;;;4.55;;
21705;SDS011;11014;53.076;18.208;2022-08-21T11:58:22;5.10;;;4.18;;
21705;SDS011;11014;53.076;18.208;2022-08-21T12:00:59;4.55;;;4.15;;
21705;SDS011;11014;53.076;18.208;2022-08-21T12:06:29;5.10;;;4.20;;
21705;SDS011;11014;53.076;18.208;2022-08-21T12:12:46;5.07;;;4.18;;
21705;SDS011;11014;53.076;18.208;2022-08-21T12:15:05;4.82;;;3.70;;
21705;SDS011;11014;53.076;18.208;2022-08-21T12:17:53;4.72;;;3.97;;
21705;SDS011;11014;53.076;18.208;2022-08-21T12:20:39;4.55;;;4.15;;
21705;SDS011;11014;53.076;18.208;2022-08-21T12:23:18;4.20;;;3.78;;
21705;SDS011;11014;53.076;18.208;2022-08-21T12:28:41;5.80;;;3.92;;
21705;SDS011;11014;53.076;18.208;2022-08-21T12:31:23;4.05;;;3.65;;
21705;SDS011;11014;53.076;18.208;2022-08-21T12:33:55;4.20;;;3.60;;
21705;SDS011;11014;53.076;18.208;2022-08-21T12:36:38;4.95;;;3.70;;
21705;SDS011;11014;53.076;18.208;2022-08-21T12:39:15;3.83;;;3.42;;
21705;SDS011;11014;53.076;18.208;2022-08-21T12:42:00;3.53;;;3.22;;
21705;SDS011;11014;53.076;18.208;2022-08-21T12:44:39;3.58;;;3.28;;
21705;SDS011;11014;53.076;18.208;2022-08-21T12:47:22;6.15;;;3.05;;
21705;SDS011;11014;53.076;18.208;2022-08-21T12:50:11;3.30;;;3.00;;
21705;SDS011;11014;53.076;18.208;2022-08-21T12:52:55;4.80;;;2.70;;
21705;SDS011;11014;53.076;18.208;2022-08-21T12:55:31;3.20;;;2.60;;
21705;SDS011;11014;53.076;18.208;2022-08-21T12:58:01;2.78;;;2.58;;
21705;SDS011;11014;53.076;18.208;2022-08-21T13:00:33;3.10;;;2.40;;
21705;SDS011;11014;53.076;18.208;2022-08-21T13:03:01;4.35;;;2.72;;
21705;SDS011;11014;53.076;18.208;2022-08-21T13:05:34;2.58;;;2.38;;
21705;SDS011;11014;53.076;18.208;2022-08-21T13:08:12;3.17;;;2.58;;
21705;SDS011;11014;53.076;18.208;2022-08-21T13:10:41;2.75;;;2.05;;
21705;SDS011;11014;53.076;18.208;2022-08-21T13:13:17;4.70;;;2.55;;
21705;SDS011;11014;53.076;18.208;2022-08-21T13:15:59;3.63;;;2.42;;
21705;SDS011;11014;53.076;18.208;2022-08-21T13:18:34;2.63;;;2.33;;
21705;SDS011;11014;53.076;18.208;2022-08-21T13:21:14;2.85;;;2.10;;
21705;SDS011;11014;53.076;18.208;2022-08-21T13:23:42;2.50;;;2.30;;
21705;SDS011;11014;53.076;18.208;2022-08-21T13:26:15;2.75;;;1.92;;
21705;SDS011;11014;53.076;18.208;2022-08-21T13:28:47;2.53;;;1.83;;
21705;SDS011;11014;53.076;18.208;2022-08-21T13:31:20;2.90;;;1.90;;
21705;SDS011;11014;53.076;18.208;2022-08-21T13:33:53;2.00;;;1.90;;
21705;SDS011;11014;53.076;18.208;2022-08-21T13:36:27;2.65;;;2.10;;
21705;SDS011;11014;53.076;18.208;2022-08-21T13:39:01;3.00;;;2.10;;
21705;SDS011;11014;53.076;18.208;2022-08-21T13:41:33;2.40;;;1.98;;
21705;SDS011;11014;53.076;18.208;2022-08-21T13:44:15;2.40;;;2.05;;
21705;SDS011;11014;53.076;18.208;2022-08-21T13:46:49;2.08;;;1.85;;
21705;SDS011;11014;53.076;18.208;2022-08-21T13:49:19;4.22;;;1.92;;
21705;SDS011;11014;53.076;18.208;2022-08-21T13:51:51;2.20;;;2.00;;
21705;SDS011;11014;53.076;18.208;2022-08-21T13:54:34;2.20;;;1.90;;
21705;SDS011;11014;53.076;18.208;2022-08-21T13:57:14;2.75;;;2.05;;
21705;SDS011;11014;53.076;18.208;2022-08-21T13:59:51;2.92;;;1.92;;
21705;SDS011;11014;53.076;18.208;2022-08-21T14:02:21;3.67;;;1.77;;
21705;SDS011;11014;53.076;18.208;2022-08-21T14:05:01;2.35;;;1.90;;
21705;SDS011;11014;53.076;18.208;2022-08-21T14:07:33;1.73;;;1.60;;
21705;SDS011;11014;53.076;18.208;2022-08-21T14:10:47;1.98;;;1.88;;
21705;SDS011;11014;53.076;18.208;2022-08-21T14:13:03;2.30;;;1.70;;
21705;SDS011;11014;53.076;18.208;2022-08-21T14:15:34;3.92;;;1.80;;
21705;SDS011;11014;53.076;18.208;2022-08-21T14:18:07;1.90;;;1.80;;
21705;SDS011;11014;53.076;18.208;2022-08-21T14:20:46;2.28;;;1.77;;
21705;SDS011;11014;53.076;18.208;2022-08-21T14:23:27;1.80;;;1.65;;
21705;SDS011;11014;53.076;18.208;2022-08-21T14:25:58;3.27;;;1.70;;
21705;SDS011;11014;53.076;18.208;2022-08-21T14:28:32;2.60;;;1.73;;
21705;SDS011;11014;53.076;18.208;2022-08-21T14:31:13;2.00;;;1.80;;
21705;SDS011;11014;53.076;18.208;2022-08-21T14:33:46;2.25;;;2.00;;
21705;SDS011;11014;53.076;18.208;2022-08-21T14:36:15;3.70;;;2.03;;
21705;SDS011;11014;53.076;18.208;2022-08-21T14:38:44;3.38;;;2.30;;
21705;SDS011;11014;53.076;18.208;2022-08-21T14:41:19;3.25;;;2.55;;
21705;SDS011;11014;53.076;18.208;2022-08-21T14:43:52;6.45;;;3.08;;
21705;SDS011;11014;53.076;18.208;2022-08-21T14:46:36;4.30;;;3.03;;
21705;SDS011;11014;53.076;18.208;2022-08-21T14:49:25;3.60;;;2.60;;
21705;SDS011;11014;53.076;18.208;2022-08-21T14:51:56;2.88;;;2.22;;
21705;SDS011;11014;53.076;18.208;2022-08-21T14:54:27;4.18;;;2.40;;
21705;SDS011;11014;53.076;18.208;2022-08-21T14:57:08;3.33;;;2.10;;
21705;SDS011;11014;53.076;18.208;2022-08-21T14:59:39;2.27;;;2.00;;
21705;SDS011;11014;53.076;18.208;2022-08-21T15:02:09;2.22;;;2.03;;
21705;SDS011;11014;53.076;18.208;2022-08-21T15:04:37;2.30;;;1.63;;
21705;SDS011;11014;53.076;18.208;2022-08-21T15:07:06;3.70;;;1.90;;
21705;SDS011;11014;53.076;18.208;2022-08-21T15:09:35;3.97;;;1.67;;
21705;SDS011;11014;53.076;18.208;2022-08-21T15:12:03;1.95;;;1.60;;
21705;SDS011;11014;53.076;18.208;2022-08-21T15:14:34;2.22;;;1.58;;
21705;SDS011;11014;53.076;18.208;2022-08-21T15:17:07;2.45;;;1.55;;
21705;SDS011;11014;53.076;18.208;2022-08-21T15:19:37;2.50;;;1.65;;
21705;SDS011;11014;53.076;18.208;2022-08-21T15:22:07;3.45;;;1.80;;
21705;SDS011;11014;53.076;18.208;2022-08-21T15:24:45;1.50;;;1.40;;
21705;SDS011;11014;53.076;18.208;2022-08-21T15:27:23;1.80;;;1.55;;
21705;SDS011;11014;53.076;18.208;2022-08-21T15:29:51;1.65;;;1.50;;
21705;SDS011;11014;53.076;18.208;2022-08-21T15:32:23;1.90;;;1.43;;
21705;SDS011;11014;53.076;18.208;2022-08-21T15:38:14;1.50;;;1.40;;
21705;SDS011;11014;53.076;18.208;2022-08-21T15:40:43;1.90;;;1.38;;
21705;SDS011;11014;53.076;18.208;2022-08-21T15:43:24;2.00;;;1.23;;
21705;SDS011;11014;53.076;18.208;2022-08-21T15:45:58;1.60;;;1.50;;
21705;SDS011;11014;53.076;18.208;2022-08-21T15:48:27;1.85;;;1.60;;
21705;SDS011;11014;53.076;18.208;2022-08-21T15:50:57;1.70;;;1.60;;
21705;SDS011;11014;53.076;18.208;2022-08-21T15:53:25;1.60;;;1.50;;
21705;SDS011;11014;53.076;18.208;2022-08-21T15:55:54;1.88;;;1.50;;
21705;SDS011;11014;53.076;18.208;2022-08-21T15:58:22;2.70;;;1.63;;
21705;SDS011;11014;53.076;18.208;2022-08-21T16:00:51;2.40;;;1.63;;
21705;SDS011;11014;53.076;18.208;2022-08-21T16:03:19;2.05;;;1.63;;
21705;SDS011;11014;53.076;18.208;2022-08-21T16:05:49;1.52;;;1.33;;
21705;SDS011;11014;53.076;18.208;2022-08-21T16:08:21;1.70;;;1.40;;
21705;SDS011;11014;53.076;18.208;2022-08-21T16:10:51;1.80;;;1.48;;
21705;SDS011;11014;53.076;18.208;2022-08-21T16:13:24;2.83;;;1.38;;
21705;SDS011;11014;53.076;18.208;2022-08-21T16:15:56;1.70;;;1.60;;
21705;SDS011;11014;53.076;18.208;2022-08-21T16:18:24;1.65;;;1.55;;
21705;SDS011;11014;53.076;18.208;2022-08-21T16:20:54;1.60;;;1.50;;
21705;SDS011;11014;53.076;18.208;2022-08-21T16:23:22;4.07;;;2.00;;
21705;SDS011;11014;53.076;18.208;2022-08-21T16:25:51;1.80;;;1.40;;
21705;SDS011;11014;53.076;18.208;2022-08-21T16:28:20;2.40;;;1.63;;
21705;SDS011;11014;53.076;18.208;2022-08-21T16:30:50;15.00;;;1.52;;
21705;SDS011;11014;53.076;18.208;2022-08-21T16:34:05;1.73;;;1.63;;
21705;SDS011;11014;53.076;18.208;2022-08-21T16:36:13;2.15;;;1.80;;
21705;SDS011;11014;53.076;18.208;2022-08-21T16:38:42;4.43;;;1.52;;